Archival Weather

Chicago O'Hare International

Chicago, Illinois (KORD)

Report from: Saturday, March 5, 2022 1:51 PM CST
Current time: Saturday, February 4, 2023 11:12 PM CST

Current weather
Weather history
Weather forecast

Temperature20.0°C (68.0°F)
Dew point10.0°C (50.0°F)
Winds 14 kts (7.2 m/s, 16.1 mph) South (190°)
Wind gusts 28 kts (14.4 m/s, 32.2 mph)
Peak wind 28 kts (14.4 m/s, 32.2 mph) South (190°) at 13:46
Visibility10 mi. (16.1 km)
Clouds Scattered clouds 4,000 ft. (1,219 m)
Ceiling: Broken clouds 25,000 ft. (7,620 m)
Altimeter29.76 in.Hg (1008 mB)
Relative humidity53 %
Density altitude944 ft. (288 m)
Sea-level pressure100.8 kPa (1008 mB, 29.76 in.Hg)
Remarks System requires maintenance
Automated weather observing station with precipitation discriminator
Flight conditions Visual Meteorological Conditions
Raw dataKORD 051951Z 19014G28KT 10SM SCT040 BKN250 20/10 A2976 RMK AO2 PK WND 19028/1946 SLP077 T02000100 $
An unhandled exception has occurred. See browser dev tools for details. Reload 🗙